createdAt,value
2023-07-08T00:00:43.654Z,94505.91
2023-07-08T00:03:10.519Z,94503.19
2023-07-08T00:05:38.885Z,94496.41
2023-07-08T00:08:23.421Z,94490.16
2023-07-08T00:10:50.210Z,94494.88
2023-07-08T00:13:18.551Z,94493.97
2023-07-08T00:15:45.244Z,94487.69
2023-07-08T00:18:17.560Z,94485.78
2023-07-08T00:20:53.314Z,94482.47
2023-07-08T00:23:20.049Z,94481.59
2023-07-08T00:25:47.152Z,94479.19
2023-07-08T00:28:16.081Z,94492.09
2023-07-08T00:30:43.333Z,94480.06
2023-07-08T00:33:10.160Z,94480.63
2023-07-08T00:35:38.240Z,94483.56
2023-07-08T00:38:15.196Z,94476.53
2023-07-08T00:41:03.930Z,94486.25
2023-07-08T00:43:57.378Z,94485.34
2023-07-08T00:46:38.372Z,94480.81
2023-07-08T00:49:20.228Z,94484.78
2023-07-08T00:51:47.000Z,94493.22
2023-07-08T00:54:19.299Z,94500.75
2023-07-08T00:57:00.515Z,94485.97
2023-07-08T00:59:32.282Z,94489.94
2023-07-08T01:01:59.621Z,94491.19
2023-07-08T01:04:30.136Z,94495.84
2023-07-08T01:06:57.716Z,94499.88
2023-07-08T01:09:35.371Z,94504.81
2023-07-08T01:12:03.850Z,94514.47
2023-07-08T01:14:32.159Z,94513.56
2023-07-08T01:16:59.158Z,94518.63
2023-07-08T01:19:26.278Z,94523.94
2023-07-08T01:22:00.004Z,94518.03
2023-07-08T01:24:26.774Z,94527.56
2023-07-08T01:26:53.582Z,94524.72
2023-07-08T01:29:20.509Z,94528.13
2023-07-08T01:31:47.603Z,94533.34
2023-07-08T01:34:14.847Z,94514.44
2023-07-08T01:36:42.469Z,94516.22
2023-07-08T01:39:13.246Z,94507.47
2023-07-08T01:41:40.363Z,94512.94
2023-07-08T01:44:31.259Z,94502.25
2023-07-08T01:46:59.928Z,94491.75
2023-07-08T01:49:27.034Z,94493.31
2023-07-08T01:51:54.095Z,94497.28
2023-07-08T01:54:20.849Z,94486.84
2023-07-08T01:56:47.556Z,94478.59
2023-07-08T01:59:14.704Z,94475.72
2023-07-08T02:01:41.898Z,94479.56
2023-07-08T02:04:08.976Z,94468.84
2023-07-08T02:06:36.081Z,94476.72
2023-07-08T02:09:02.814Z,94482.81
2023-07-08T02:11:29.921Z,94469.34
2023-07-08T02:13:57.055Z,94474.28
2023-07-08T02:16:23.791Z,94467.19
2023-07-08T02:18:50.523Z,94471.75
2023-07-08T02:21:18.212Z,94471.41
2023-07-08T02:23:49.991Z,94475.13
2023-07-08T02:26:17.177Z,94477.00
2023-07-08T02:28:43.886Z,94469.88
2023-07-08T02:31:10.998Z,94469.66
2023-07-08T02:33:38.114Z,94475.50
2023-07-08T02:36:04.928Z,94464.50
2023-07-08T02:38:31.652Z,94467.28
2023-07-08T02:40:58.782Z,94473.03
2023-07-08T02:43:25.791Z,94468.31
2023-07-08T02:45:52.567Z,94469.88
2023-07-08T02:48:19.996Z,94482.94
2023-07-08T02:50:46.794Z,94490.94
2023-07-08T02:53:13.582Z,94491.59
2023-07-08T02:55:40.733Z,94494.25
2023-07-08T02:58:07.468Z,94496.47
2023-07-08T03:00:34.177Z,94505.25
2023-07-08T03:03:00.971Z,94506.63
2023-07-08T03:05:27.836Z,94504.75
2023-07-08T03:07:54.943Z,94503.94
2023-07-08T03:10:21.684Z,94495.69
2023-07-08T03:12:48.423Z,94495.16
2023-07-08T03:15:15.175Z,94507.59
2023-07-08T03:17:42.008Z,94509.56
2023-07-08T03:20:10.534Z,94527.84
2023-07-08T03:22:37.802Z,94540.59
2023-07-08T03:25:05.599Z,94553.44
2023-07-08T03:27:32.971Z,94550.88
2023-07-08T03:30:02.672Z,94533.94
2023-07-08T03:32:29.959Z,94519.63
2023-07-08T03:34:56.973Z,94506.66
2023-07-08T03:37:23.838Z,94505.28
2023-07-08T03:39:50.900Z,94517.06
2023-07-08T03:42:18.041Z,94519.44
2023-07-08T03:44:47.609Z,94505.59
2023-07-08T03:47:14.725Z,94510.56
2023-07-08T03:49:41.776Z,94510.56
2023-07-08T03:52:08.770Z,94520.78
2023-07-08T03:54:35.835Z,94533.31
2023-07-08T03:57:03.127Z,94543.78
2023-07-08T03:59:29.833Z,94552.53
2023-07-08T04:01:57.042Z,94551.56
2023-07-08T04:04:23.932Z,94551.25
2023-07-08T04:06:50.767Z,94554.03
2023-07-08T04:09:17.829Z,94557.66
2023-07-08T04:11:44.627Z,94562.25
2023-07-08T04:14:11.826Z,94571.44
2023-07-08T04:16:53.228Z,94585.75
2023-07-08T04:19:20.285Z,94588.06
2023-07-08T04:21:47.594Z,94592.03
2023-07-08T04:24:16.613Z,94590.53
2023-07-08T04:26:44.075Z,94597.69
2023-07-08T04:29:15.288Z,94590.91
2023-07-08T04:31:42.531Z,94594.47
2023-07-08T04:34:09.799Z,94598.38
2023-07-08T04:36:37.215Z,94603.28
2023-07-08T04:39:05.058Z,94611.88
2023-07-08T04:41:33.892Z,94621.41
2023-07-08T04:44:00.713Z,94624.09
2023-07-08T04:46:37.846Z,94619.03
2023-07-08T04:49:05.046Z,94634.25
2023-07-08T04:51:31.827Z,94641.75
2023-07-08T04:54:02.858Z,94651.53
2023-07-08T04:56:43.114Z,94656.72
2023-07-08T04:59:12.307Z,94657.75
2023-07-08T05:01:41.916Z,94666.22
2023-07-08T05:04:08.994Z,94678.63
2023-07-08T05:06:35.822Z,94660.84
2023-07-08T05:09:03.035Z,94666.25
2023-07-08T05:11:31.093Z,94657.47
2023-07-08T05:13:58.131Z,94668.00
2023-07-08T05:16:27.801Z,94655.88
2023-07-08T05:18:54.589Z,94662.28
2023-07-08T05:21:21.872Z,94655.81
2023-07-08T05:23:51.380Z,94662.53
2023-07-08T05:26:18.187Z,94660.44
2023-07-08T05:28:44.926Z,94666.44
2023-07-08T05:31:12.403Z,94680.91
2023-07-08T05:33:39.520Z,94673.19
2023-07-08T05:36:08.220Z,94686.06
2023-07-08T05:38:42.243Z,94687.63
2023-07-08T05:41:10.094Z,94696.16
2023-07-08T05:43:36.821Z,94692.78
2023-07-08T05:46:11.486Z,94702.06
2023-07-08T05:48:39.393Z,94693.06
2023-07-08T05:51:06.707Z,94699.75
2023-07-08T05:53:33.460Z,94698.47
2023-07-08T05:56:00.204Z,94691.25
2023-07-08T05:58:27.503Z,94701.28
2023-07-08T06:00:59.414Z,94701.00
2023-07-08T06:03:26.691Z,94693.50
2023-07-08T06:05:54.414Z,94699.69
2023-07-08T06:08:21.680Z,94705.09
2023-07-08T06:10:48.458Z,94710.25
2023-07-08T06:13:15.252Z,94709.72
2023-07-08T06:15:42.376Z,94711.50
2023-07-08T06:18:12.117Z,94703.72
2023-07-08T06:20:38.914Z,94710.69
2023-07-08T06:23:06.892Z,94710.16
2023-07-08T06:25:34.953Z,94717.34
2023-07-08T06:28:04.780Z,94720.94
2023-07-08T06:30:31.574Z,94726.59
2023-07-08T06:33:02.051Z,94734.09
2023-07-08T06:35:29.632Z,94745.19
2023-07-08T06:37:58.157Z,94744.66
2023-07-08T06:40:24.893Z,94745.72
2023-07-08T06:42:51.618Z,94747.44
2023-07-08T06:45:23.425Z,94754.91
2023-07-08T06:47:55.975Z,94748.94
2023-07-08T06:50:22.925Z,94748.91
2023-07-08T06:52:52.643Z,94736.06
2023-07-08T06:55:20.080Z,94744.81
2023-07-08T06:57:46.894Z,94735.94
2023-07-08T07:00:15.284Z,94741.88
2023-07-08T07:02:42.092Z,94740.03
2023-07-08T07:05:10.025Z,94732.81
2023-07-08T07:07:37.212Z,94739.41
2023-07-08T07:10:04.533Z,94748.13
2023-07-08T07:12:31.725Z,94755.84
2023-07-08T07:14:58.569Z,94752.69
2023-07-08T07:17:27.087Z,94753.50
2023-07-08T07:19:54.826Z,94756.66
2023-07-08T07:22:21.630Z,94750.72
2023-07-08T07:24:49.387Z,94740.00
2023-07-08T07:27:16.166Z,94747.44
2023-07-08T07:29:44.687Z,94752.63
2023-07-08T07:32:12.004Z,94764.50
2023-07-08T07:34:39.481Z,94756.28
2023-07-08T07:37:10.637Z,94756.06
2023-07-08T07:39:37.868Z,94764.28
2023-07-08T07:42:05.709Z,94761.66
2023-07-08T07:44:34.021Z,94756.00
2023-07-08T07:47:01.407Z,94752.69
2023-07-08T07:49:28.598Z,94746.50
2023-07-08T07:51:55.446Z,94739.28
2023-07-08T07:54:23.381Z,94730.78
2023-07-08T07:56:51.848Z,94740.03
2023-07-08T07:59:18.635Z,94737.16
2023-07-08T08:01:45.718Z,94744.00
2023-07-08T08:04:12.610Z,94741.97
2023-07-08T08:06:39.405Z,94740.13
2023-07-08T08:09:06.492Z,94739.47
2023-07-08T08:11:33.977Z,94736.31
2023-07-08T08:14:01.457Z,94736.44
2023-07-08T08:16:29.392Z,94740.06
2023-07-08T08:18:56.662Z,94741.44
2023-07-08T08:21:24.932Z,94747.19
2023-07-08T08:23:51.686Z,94750.19
2023-07-08T08:26:18.441Z,94750.06
2023-07-08T08:28:45.179Z,94754.16
2023-07-08T08:31:14.608Z,94758.94
2023-07-08T08:33:42.066Z,94759.97
2023-07-08T08:36:09.137Z,94754.16
2023-07-08T08:38:38.894Z,94756.22
2023-07-08T08:41:16.637Z,94755.09
2023-07-08T08:43:45.247Z,94756.66
2023-07-08T08:46:58.667Z,94760.34
2023-07-08T08:49:30.916Z,94765.00
2023-07-08T08:51:57.758Z,94763.38
2023-07-08T08:54:24.774Z,94763.63
2023-07-08T08:57:00.969Z,94764.63
2023-07-08T08:59:46.980Z,94757.28
2023-07-08T09:02:28.957Z,94751.06
2023-07-08T09:05:09.628Z,94759.63
2023-07-08T09:07:52.567Z,94759.38
2023-07-08T09:10:56.837Z,94767.44
2023-07-08T09:13:26.977Z,94756.56
2023-07-08T09:16:40.302Z,94761.41
2023-07-08T09:19:25.769Z,94760.72
2023-07-08T09:22:03.768Z,94765.97
2023-07-08T09:24:48.359Z,94765.84
2023-07-08T09:27:15.553Z,94755.69
2023-07-08T09:29:42.754Z,94766.94
2023-07-08T09:32:16.959Z,94763.69
2023-07-08T09:34:54.471Z,94764.91
2023-07-08T09:37:33.101Z,94765.06
2023-07-08T09:40:01.258Z,94768.16
2023-07-08T09:42:33.436Z,94773.78
2023-07-08T09:45:01.734Z,94764.78
2023-07-08T09:47:48.404Z,94762.41
2023-07-08T09:50:29.309Z,94775.84
2023-07-08T09:52:58.789Z,94766.09
2023-07-08T09:55:26.785Z,94761.34
2023-07-08T09:57:54.290Z,94765.53
2023-07-08T10:00:28.888Z,94760.56
2023-07-08T10:02:56.971Z,94761.84
2023-07-08T10:05:30.163Z,94764.56
2023-07-08T10:07:57.831Z,94759.53
2023-07-08T10:10:34.684Z,94752.97
2023-07-08T10:13:04.005Z,94746.16
2023-07-08T10:15:44.040Z,94757.84
2023-07-08T10:18:17.921Z,94754.00
2023-07-08T10:21:11.327Z,94758.59
2023-07-08T10:24:15.199Z,94752.22
2023-07-08T10:26:42.117Z,94759.19
2023-07-08T10:29:27.740Z,94757.19
2023-07-08T10:32:15.584Z,94753.22
2023-07-08T10:34:57.914Z,94754.97
2023-07-08T10:38:02.308Z,94769.75
2023-07-08T10:40:46.137Z,94767.44
2023-07-08T10:43:41.632Z,94751.88
2023-07-08T10:47:09.343Z,94759.28
2023-07-08T10:49:55.201Z,94763.00
2023-07-08T10:52:49.859Z,94761.09
2023-07-08T10:55:45.657Z,94757.44
2023-07-08T10:58:31.987Z,94752.28
2023-07-08T11:01:11.448Z,94757.09
2023-07-08T11:04:08.529Z,94746.44
2023-07-08T11:07:04.691Z,94747.03
2023-07-08T11:09:37.564Z,94747.13
2023-07-08T11:12:42.701Z,94745.56
2023-07-08T11:15:12.547Z,94733.09
2023-07-08T11:18:03.961Z,94732.09
2023-07-08T11:20:46.751Z,94734.72
2023-07-08T11:23:24.796Z,94740.19
2023-07-08T11:25:52.009Z,94734.25
2023-07-08T11:28:20.129Z,94735.16
2023-07-08T11:30:48.670Z,94725.69
2023-07-08T11:33:15.467Z,94730.84
2023-07-08T11:35:42.047Z,94725.06
2023-07-08T11:38:12.967Z,94736.25
2023-07-08T11:41:04.029Z,94729.53
2023-07-08T11:43:57.981Z,94727.72
2023-07-08T11:46:26.914Z,94725.63
2023-07-08T11:48:54.130Z,94726.31
2023-07-08T11:51:24.753Z,94725.78
2023-07-08T11:54:21.844Z,94729.63
2023-07-08T11:57:01.337Z,94721.78
2023-07-08T11:59:34.077Z,94724.28
2023-07-08T12:02:05.792Z,94720.03
2023-07-08T12:04:36.185Z,94719.75
2023-07-08T12:07:31.284Z,94706.88
2023-07-08T12:10:12.336Z,94716.03
2023-07-08T12:12:42.035Z,94715.00
2023-07-08T12:15:28.077Z,94705.53
2023-07-08T12:17:59.448Z,94711.94
2023-07-08T12:20:34.092Z,94706.41
2023-07-08T12:23:01.114Z,94698.22
2023-07-08T12:25:32.306Z,94696.50
2023-07-08T12:28:00.173Z,94706.09
2023-07-08T12:30:27.676Z,94708.66
2023-07-08T12:32:54.453Z,94720.63
2023-07-08T12:35:24.269Z,94706.75
2023-07-08T12:37:52.787Z,94703.91
2023-07-08T12:40:21.093Z,94709.44
2023-07-08T12:42:48.135Z,94702.06
2023-07-08T12:45:20.852Z,94697.13
2023-07-08T12:47:47.779Z,94695.59
2023-07-08T12:50:14.864Z,94700.38
2023-07-08T12:52:42.335Z,94692.28
2023-07-08T12:55:10.711Z,94694.03
2023-07-08T12:57:38.818Z,94697.13
2023-07-08T13:00:11.765Z,94699.22
2023-07-08T13:02:38.996Z,94701.53
2023-07-08T13:05:06.086Z,94693.41
2023-07-08T13:07:38.625Z,94685.22
2023-07-08T13:10:06.826Z,94687.50
2023-07-08T13:12:33.727Z,94683.38
2023-07-08T13:15:01.757Z,94684.63
2023-07-08T13:17:28.607Z,94686.00
2023-07-08T13:19:55.570Z,94686.00
2023-07-08T13:22:22.991Z,94684.47
2023-07-08T13:24:49.693Z,94676.06
2023-07-08T13:27:23.766Z,94680.19
2023-07-08T13:29:57.163Z,94679.31
2023-07-08T13:32:36.362Z,94677.44
2023-07-08T13:35:03.124Z,94678.03
2023-07-08T13:37:32.769Z,94680.25
2023-07-08T13:39:59.759Z,94681.28
2023-07-08T13:42:26.535Z,94678.06
2023-07-08T13:44:53.273Z,94677.59
2023-07-08T13:47:21.878Z,94674.72
2023-07-08T13:49:48.952Z,94682.28
2023-07-08T13:52:20.852Z,94687.88
2023-07-08T13:54:49.704Z,94683.63
2023-07-08T13:57:17.724Z,94676.63
2023-07-08T13:59:44.489Z,94675.72
2023-07-08T14:02:31.043Z,94674.81
2023-07-08T14:04:58.723Z,94667.53
2023-07-08T14:07:29.941Z,94678.78
2023-07-08T14:09:57.129Z,94668.09
2023-07-08T14:12:24.262Z,94677.41
2023-07-08T14:14:51.352Z,94677.75
2023-07-08T14:17:25.812Z,94666.94
2023-07-08T14:19:53.631Z,94675.16
2023-07-08T14:22:23.304Z,94674.88
2023-07-08T14:24:50.428Z,94672.41
2023-07-08T14:27:19.035Z,94673.72
2023-07-08T14:29:48.313Z,94681.91
2023-07-08T14:32:25.584Z,94670.50
2023-07-08T14:34:54.037Z,94677.00
2023-07-08T14:37:21.300Z,94673.91
2023-07-08T14:39:48.872Z,94670.59
2023-07-08T14:42:17.717Z,94671.53
2023-07-08T14:44:48.904Z,94677.72
2023-07-08T14:47:17.867Z,94679.88
2023-07-08T14:49:44.685Z,94672.03
2023-07-08T14:52:11.470Z,94676.53
2023-07-08T14:54:38.930Z,94675.53
2023-07-08T14:57:06.243Z,94675.50
2023-07-08T14:59:34.170Z,94672.09
2023-07-08T15:02:02.100Z,94679.00
2023-07-08T15:04:28.910Z,94676.50
2023-07-08T15:06:58.844Z,94671.03
2023-07-08T15:09:26.065Z,94674.28
2023-07-08T15:11:52.793Z,94670.69
2023-07-08T15:14:20.589Z,94666.81
2023-07-08T15:16:47.940Z,94665.34
2023-07-08T15:19:15.302Z,94662.88
2023-07-08T15:21:42.061Z,94659.53
2023-07-08T15:24:10.991Z,94666.28
2023-07-08T15:26:42.514Z,94652.88
2023-07-08T15:29:15.038Z,94670.91
2023-07-08T15:31:41.809Z,94655.63
2023-07-08T15:34:16.536Z,94657.84
2023-07-08T15:36:43.270Z,94666.19
2023-07-08T15:39:10.142Z,94665.56
2023-07-08T15:41:36.975Z,94658.41
2023-07-08T15:44:03.712Z,94660.88
2023-07-08T15:46:35.438Z,94652.31
2023-07-08T15:49:05.861Z,94655.59
2023-07-08T15:51:32.577Z,94651.78
2023-07-08T15:53:59.300Z,94649.59
2023-07-08T15:56:26.031Z,94653.69
2023-07-08T15:58:52.745Z,94650.56
2023-07-08T16:01:23.777Z,94641.28
2023-07-08T16:03:50.723Z,94640.63
2023-07-08T16:06:18.023Z,94640.19
2023-07-08T16:08:45.206Z,94639.25
2023-07-08T16:11:34.965Z,94640.72
2023-07-08T16:14:03.029Z,94642.53
2023-07-08T16:16:30.138Z,94639.63
2023-07-08T16:18:57.370Z,94632.16
2023-07-08T16:21:24.532Z,94629.50
2023-07-08T16:23:51.636Z,94638.91
2023-07-08T16:26:18.742Z,94633.44
2023-07-08T16:28:46.323Z,94635.66
2023-07-08T16:31:22.114Z,94632.72
2023-07-08T16:33:49.287Z,94630.03
2023-07-08T16:36:17.699Z,94627.88
2023-07-08T16:38:44.775Z,94635.84
2023-07-08T16:41:50.728Z,94635.47
2023-07-08T16:44:17.604Z,94636.09
2023-07-08T16:46:44.566Z,94631.41
2023-07-08T16:49:31.360Z,94640.41
2023-07-08T16:51:58.127Z,94635.31
2023-07-08T16:54:36.114Z,94642.25
2023-07-08T16:57:02.840Z,94633.69
2023-07-08T16:59:29.553Z,94633.22
2023-07-08T17:01:57.503Z,94639.72
2023-07-08T17:04:28.684Z,94633.41
2023-07-08T17:06:55.794Z,94626.31
2023-07-08T17:09:22.562Z,94629.47
2023-07-08T17:11:49.281Z,94625.59
2023-07-08T17:14:16.710Z,94621.56
2023-07-08T17:16:44.199Z,94626.34
2023-07-08T17:19:10.974Z,94626.44
2023-07-08T17:21:37.696Z,94623.19
2023-07-08T17:24:04.736Z,94623.28
2023-07-08T17:26:32.109Z,94624.47
2023-07-08T17:28:58.857Z,94625.78
2023-07-08T17:31:34.492Z,94634.13
2023-07-08T17:34:20.503Z,94633.94
2023-07-08T17:36:54.273Z,94622.41
2023-07-08T17:39:21.115Z,94621.06
2023-07-08T17:41:47.881Z,94626.53
2023-07-08T17:44:14.608Z,94629.91
2023-07-08T17:46:41.367Z,94630.28
2023-07-08T17:49:11.531Z,94628.88
2023-07-08T17:51:38.288Z,94631.97
2023-07-08T17:54:05.003Z,94638.97
2023-07-08T17:56:47.819Z,94628.19
2023-07-08T17:59:19.948Z,94624.88
2023-07-08T18:01:46.920Z,94633.75
2023-07-08T18:04:13.674Z,94634.22
2023-07-08T18:06:40.428Z,94629.84
2023-07-08T18:09:07.148Z,94622.44
2023-07-08T18:11:34.385Z,94624.00
2023-07-08T18:14:01.478Z,94626.66
2023-07-08T18:16:28.382Z,94637.63
2023-07-08T18:18:55.203Z,94630.91
2023-07-08T18:21:23.831Z,94635.94
2023-07-08T18:23:56.322Z,94631.44
2023-07-08T18:26:25.530Z,94627.97
2023-07-08T18:28:52.718Z,94626.38
2023-07-08T18:31:22.754Z,94633.22
2023-07-08T18:33:49.716Z,94648.75
2023-07-08T18:36:16.939Z,94635.44
2023-07-08T18:38:44.297Z,94638.69
2023-07-08T18:41:19.166Z,94640.09
2023-07-08T18:43:45.875Z,94633.66
2023-07-08T18:46:15.096Z,94640.84
2023-07-08T18:48:41.966Z,94640.47
2023-07-08T18:51:42.740Z,94651.97
2023-07-08T18:54:23.326Z,94647.22
2023-07-08T18:56:50.054Z,94647.78
2023-07-08T18:59:17.904Z,94646.78
2023-07-08T19:01:48.716Z,94649.88
2023-07-08T19:04:25.248Z,94646.81
2023-07-08T19:06:53.872Z,94649.56
2023-07-08T19:09:21.010Z,94655.66
2023-07-08T19:11:47.748Z,94653.94
2023-07-08T19:14:15.900Z,94652.06
2023-07-08T19:16:42.748Z,94654.56
2023-07-08T19:19:10.308Z,94654.75
2023-07-08T19:21:37.024Z,94649.41
2023-07-08T19:24:04.909Z,94662.19
2023-07-08T19:26:32.367Z,94661.84
2023-07-08T19:28:59.084Z,94659.47
2023-07-08T19:31:32.935Z,94659.78
2023-07-08T19:34:03.234Z,94661.44
2023-07-08T19:36:30.915Z,94667.28
2023-07-08T19:39:00.683Z,94674.16
2023-07-08T19:41:29.598Z,94678.31
2023-07-08T19:43:57.130Z,94676.03
2023-07-08T19:46:23.860Z,94678.53
2023-07-08T19:48:50.966Z,94678.16
2023-07-08T19:51:19.589Z,94683.53
2023-07-08T19:53:46.323Z,94683.94
2023-07-08T19:56:16.853Z,94696.13
2023-07-08T19:58:44.410Z,94699.00
2023-07-08T20:01:12.088Z,94699.75
2023-07-08T20:03:39.020Z,94706.66
2023-07-08T20:06:23.165Z,94714.06
2023-07-08T20:08:50.022Z,94718.59
2023-07-08T20:11:17.272Z,94715.25
2023-07-08T20:13:44.033Z,94726.31
2023-07-08T20:16:18.759Z,94731.47
2023-07-08T20:18:46.445Z,94727.47
2023-07-08T20:21:13.638Z,94730.44
2023-07-08T20:23:40.499Z,94736.47
2023-07-08T20:26:28.315Z,94736.22
2023-07-08T20:28:58.165Z,94734.38
2023-07-08T20:31:25.030Z,94734.03
2023-07-08T20:33:52.261Z,94745.78
2023-07-08T20:36:22.668Z,94749.22
2023-07-08T20:38:49.733Z,94753.13
2023-07-08T20:41:16.513Z,94750.47
2023-07-08T20:43:43.605Z,94747.34
2023-07-08T20:46:30.523Z,94751.91
2023-07-08T20:48:59.099Z,94752.91
2023-07-08T20:51:25.905Z,94752.47
2023-07-08T20:54:12.746Z,94751.69
2023-07-08T20:56:39.877Z,94760.66
2023-07-08T20:59:16.221Z,94766.38
2023-07-08T21:01:44.769Z,94766.84
2023-07-08T21:04:13.024Z,94779.06
2023-07-08T21:06:40.183Z,94780.53
2023-07-08T21:09:09.373Z,94777.66
2023-07-08T21:11:36.689Z,94778.44
2023-07-08T21:14:03.510Z,94781.59
2023-07-08T21:16:30.747Z,94788.88
2023-07-08T21:18:57.872Z,94782.28
2023-07-08T21:21:24.807Z,94788.66
2023-07-08T21:23:54.864Z,94790.25
2023-07-08T21:26:30.627Z,94785.50
2023-07-08T21:28:58.995Z,94780.97
2023-07-08T21:31:25.927Z,94796.59
2023-07-08T21:33:53.159Z,94792.63
2023-07-08T21:36:24.867Z,94790.66
2023-07-08T21:38:52.707Z,94788.22
2023-07-08T21:41:19.606Z,94785.03
2023-07-08T21:43:47.582Z,94793.53
2023-07-08T21:46:14.372Z,94793.06
2023-07-08T21:48:41.635Z,94787.78
2023-07-08T21:51:28.824Z,94775.69
2023-07-08T21:53:57.191Z,94775.06
2023-07-08T21:56:23.985Z,94784.03
2023-07-08T21:58:51.481Z,94781.63
2023-07-08T22:01:20.375Z,94778.69
2023-07-08T22:03:47.912Z,94780.09
2023-07-08T22:06:16.264Z,94772.63
2023-07-08T22:08:43.093Z,94779.00
2023-07-08T22:11:22.628Z,94773.72
2023-07-08T22:13:50.633Z,94777.00
2023-07-08T22:20:12.166Z,94774.59
2023-07-08T22:22:40.794Z,94783.34
2023-07-08T22:25:34.719Z,94780.53
2023-07-08T22:28:01.500Z,94771.59
2023-07-08T22:30:28.280Z,94781.63
2023-07-08T22:32:55.787Z,94778.56
2023-07-08T22:35:23.983Z,94773.66
2023-07-08T22:37:51.209Z,94782.91
2023-07-08T22:40:18.268Z,94775.13
2023-07-08T22:42:45.012Z,94774.16
2023-07-08T22:45:15.841Z,94775.66
2023-07-08T22:47:42.699Z,94779.41
2023-07-08T22:50:09.921Z,94782.59
2023-07-08T22:52:38.132Z,94772.63
2023-07-08T22:55:10.722Z,94771.22
2023-07-08T22:57:38.048Z,94769.75
2023-07-08T23:00:06.921Z,94781.38
2023-07-08T23:02:34.995Z,94774.13
2023-07-08T23:05:01.768Z,94771.91
2023-07-08T23:07:28.966Z,94776.44
2023-07-08T23:09:55.749Z,94783.44
2023-07-08T23:12:22.519Z,94779.06
2023-07-08T23:14:50.042Z,94774.13
2023-07-08T23:17:17.135Z,94775.84
2023-07-08T23:19:44.244Z,94770.69
2023-07-08T23:22:32.550Z,94777.91
2023-07-08T23:24:59.853Z,94773.56
2023-07-08T23:27:26.633Z,94780.06
2023-07-08T23:29:53.635Z,94783.59
2023-07-08T23:32:23.361Z,94781.13
2023-07-08T23:34:53.134Z,94776.69
2023-07-08T23:37:20.480Z,94780.56
2023-07-08T23:39:47.664Z,94784.75
2023-07-08T23:42:14.956Z,94791.06
2023-07-08T23:44:41.795Z,94789.31
2023-07-08T23:49:46.885Z,94787.53
2023-07-08T23:52:15.545Z,94792.69
2023-07-08T23:54:42.648Z,94789.91
2023-07-08T23:57:27.464Z,94791.78
2023-07-08T23:59:56.517Z,94791.13
